sensor_id;sensor_type;location;lat;lon;timestamp;temperature;humidity
39079;DHT22;24829;49.208;12.080;2023-08-06T00:02:19;16.00;99.90
39079;DHT22;24829;49.208;12.080;2023-08-06T00:04:45;16.00;99.90
39079;DHT22;24829;49.208;12.080;2023-08-06T00:07:10;16.00;99.90
39079;DHT22;24829;49.208;12.080;2023-08-06T00:09:36;16.00;99.90
39079;DHT22;24829;49.208;12.080;2023-08-06T00:12:01;16.00;99.90
39079;DHT22;24829;49.208;12.080;2023-08-06T00:14:27;16.00;99.90
39079;DHT22;24829;49.208;12.080;2023-08-06T00:16:53;16.00;99.90
39079;DHT22;24829;49.208;12.080;2023-08-06T00:19:18;16.00;99.90
39079;DHT22;24829;49.208;12.080;2023-08-06T00:21:44;16.00;99.90
39079;DHT22;24829;49.208;12.080;2023-08-06T00:24:09;16.00;99.90
39079;DHT22;24829;49.208;12.080;2023-08-06T00:26:35;15.90;99.90
39079;DHT22;24829;49.208;12.080;2023-08-06T00:29:00;15.90;99.90
39079;DHT22;24829;49.208;12.080;2023-08-06T00:31:26;15.90;99.90
39079;DHT22;24829;49.208;12.080;2023-08-06T00:33:51;15.90;99.90
39079;DHT22;24829;49.208;12.080;2023-08-06T00:36:17;15.90;99.90
39079;DHT22;24829;49.208;12.080;2023-08-06T00:38:43;15.90;99.90
39079;DHT22;24829;49.208;12.080;2023-08-06T00:41:08;16.00;99.90
39079;DHT22;24829;49.208;12.080;2023-08-06T00:43:34;16.00;99.90
39079;DHT22;24829;49.208;12.080;2023-08-06T00:46:00;16.00;99.90
39079;DHT22;24829;49.208;12.080;2023-08-06T00:48:26;16.00;99.90
39079;DHT22;24829;49.208;12.080;2023-08-06T00:50:52;16.00;99.90
39079;DHT22;24829;49.208;12.080;2023-08-06T00:53:17;16.00;99.90
39079;DHT22;24829;49.208;12.080;2023-08-06T00:55:44;16.00;99.90
39079;DHT22;24829;49.208;12.080;2023-08-06T00:58:11;15.90;99.90
39079;DHT22;24829;49.208;12.080;2023-08-06T01:00:37;15.80;99.90
39079;DHT22;24829;49.208;12.080;2023-08-06T01:03:03;15.70;99.90
39079;DHT22;24829;49.208;12.080;2023-08-06T01:05:29;15.60;99.90
39079;DHT22;24829;49.208;12.080;2023-08-06T01:13:43;15.60;99.90
39079;DHT22;24829;49.208;12.080;2023-08-06T01:16:15;15.60;99.90
39079;DHT22;24829;49.208;12.080;2023-08-06T01:18:41;15.60;99.90
39079;DHT22;24829;49.208;12.080;2023-08-06T01:21:12;15.50;99.90
39079;DHT22;24829;49.208;12.080;2023-08-06T01:23:38;15.40;99.90
39079;DHT22;24829;49.208;12.080;2023-08-06T01:31:37;15.40;99.90
39079;DHT22;24829;49.208;12.080;2023-08-06T01:34:01;15.30;99.90
39079;DHT22;24829;49.208;12.080;2023-08-06T01:36:28;15.30;99.90
39079;DHT22;24829;49.208;12.080;2023-08-06T01:38:54;15.30;99.90
39079;DHT22;24829;49.208;12.080;2023-08-06T01:41:19;15.30;99.90
39079;DHT22;24829;49.208;12.080;2023-08-06T01:43:45;15.30;99.90
39079;DHT22;24829;49.208;12.080;2023-08-06T01:46:11;15.30;99.90
39079;DHT22;24829;49.208;12.080;2023-08-06T01:48:36;15.30;99.90
39079;DHT22;24829;49.208;12.080;2023-08-06T01:51:04;15.30;99.90
39079;DHT22;24829;49.208;12.080;2023-08-06T01:53:31;15.40;99.90
39079;DHT22;24829;49.208;12.080;2023-08-06T01:55:57;15.40;99.90
39079;DHT22;24829;49.208;12.080;2023-08-06T01:58:22;15.40;99.90
39079;DHT22;24829;49.208;12.080;2023-08-06T02:00:48;15.40;99.90
39079;DHT22;24829;49.208;12.080;2023-08-06T02:03:13;15.30;99.90
39079;DHT22;24829;49.208;12.080;2023-08-06T02:05:40;15.30;99.90
39079;DHT22;24829;49.208;12.080;2023-08-06T02:08:05;15.30;99.90
39079;DHT22;24829;49.208;12.080;2023-08-06T02:10:31;15.30;99.90
39079;DHT22;24829;49.208;12.080;2023-08-06T02:12:56;15.30;99.90
39079;DHT22;24829;49.208;12.080;2023-08-06T02:15:22;15.30;99.90
39079;DHT22;24829;49.208;12.080;2023-08-06T02:17:48;15.30;99.90
39079;DHT22;24829;49.208;12.080;2023-08-06T02:20:13;15.30;99.90
39079;DHT22;24829;49.208;12.080;2023-08-06T02:22:39;15.30;99.90
39079;DHT22;24829;49.208;12.080;2023-08-06T02:25:05;15.30;99.90
39079;DHT22;24829;49.208;12.080;2023-08-06T02:27:30;15.30;99.90
39079;DHT22;24829;49.208;12.080;2023-08-06T02:29:56;15.20;99.90
39079;DHT22;24829;49.208;12.080;2023-08-06T02:32:21;15.20;99.90
39079;DHT22;24829;49.208;12.080;2023-08-06T02:34:47;15.20;99.90
39079;DHT22;24829;49.208;12.080;2023-08-06T02:37:12;15.20;99.90
39079;DHT22;24829;49.208;12.080;2023-08-06T02:39:38;15.20;99.90
39079;DHT22;24829;49.208;12.080;2023-08-06T02:42:06;15.10;99.90
39079;DHT22;24829;49.208;12.080;2023-08-06T02:44:32;15.10;99.90
39079;DHT22;24829;49.208;12.080;2023-08-06T02:46:57;15.10;99.90
39079;DHT22;24829;49.208;12.080;2023-08-06T02:49:23;15.10;99.90
39079;DHT22;24829;49.208;12.080;2023-08-06T02:51:48;15.10;99.90
39079;DHT22;24829;49.208;12.080;2023-08-06T02:54:14;15.10;99.90
39079;DHT22;24829;49.208;12.080;2023-08-06T02:56:43;15.00;99.90
39079;DHT22;24829;49.208;12.080;2023-08-06T02:59:10;15.10;99.90
39079;DHT22;24829;49.208;12.080;2023-08-06T03:01:35;15.00;99.90
39079;DHT22;24829;49.208;12.080;2023-08-06T03:04:01;15.00;99.90
39079;DHT22;24829;49.208;12.080;2023-08-06T03:06:27;15.00;99.90
39079;DHT22;24829;49.208;12.080;2023-08-06T03:08:52;15.00;99.90
39079;DHT22;24829;49.208;12.080;2023-08-06T03:11:18;15.00;99.90
39079;DHT22;24829;49.208;12.080;2023-08-06T03:13:43;14.90;99.90
39079;DHT22;24829;49.208;12.080;2023-08-06T03:16:09;14.90;99.90
39079;DHT22;24829;49.208;12.080;2023-08-06T03:18:34;14.90;99.90
39079;DHT22;24829;49.208;12.080;2023-08-06T03:21:00;14.90;99.90
39079;DHT22;24829;49.208;12.080;2023-08-06T03:23:26;15.00;99.90
39079;DHT22;24829;49.208;12.080;2023-08-06T03:25:51;14.90;99.90
39079;DHT22;24829;49.208;12.080;2023-08-06T03:28:17;15.00;99.90
39079;DHT22;24829;49.208;12.080;2023-08-06T03:30:43;15.00;99.90
39079;DHT22;24829;49.208;12.080;2023-08-06T03:33:08;15.00;99.90
39079;DHT22;24829;49.208;12.080;2023-08-06T03:35:34;15.00;99.90
39079;DHT22;24829;49.208;12.080;2023-08-06T03:37:59;14.90;99.90
39079;DHT22;24829;49.208;12.080;2023-08-06T03:40:25;14.90;99.90
39079;DHT22;24829;49.208;12.080;2023-08-06T03:42:50;14.90;99.90
39079;DHT22;24829;49.208;12.080;2023-08-06T03:45:16;14.90;99.90
39079;DHT22;24829;49.208;12.080;2023-08-06T03:47:41;15.00;99.90
39079;DHT22;24829;49.208;12.080;2023-08-06T03:50:07;15.00;99.90
39079;DHT22;24829;49.208;12.080;2023-08-06T03:52:33;14.90;99.90
39079;DHT22;24829;49.208;12.080;2023-08-06T03:54:58;14.90;99.90
39079;DHT22;24829;49.208;12.080;2023-08-06T03:57:24;14.90;99.90
39079;DHT22;24829;49.208;12.080;2023-08-06T03:59:49;14.90;99.90
39079;DHT22;24829;49.208;12.080;2023-08-06T04:02:15;14.80;99.90
39079;DHT22;24829;49.208;12.080;2023-08-06T04:04:40;14.80;99.90
39079;DHT22;24829;49.208;12.080;2023-08-06T04:07:06;14.80;99.90
39079;DHT22;24829;49.208;12.080;2023-08-06T04:09:32;14.80;99.90
39079;DHT22;24829;49.208;12.080;2023-08-06T04:11:57;14.90;99.90
39079;DHT22;24829;49.208;12.080;2023-08-06T04:14:25;14.90;99.90
39079;DHT22;24829;49.208;12.080;2023-08-06T04:16:51;14.80;99.90
39079;DHT22;24829;49.208;12.080;2023-08-06T04:19:17;14.90;99.90
39079;DHT22;24829;49.208;12.080;2023-08-06T04:21:42;14.90;99.90
39079;DHT22;24829;49.208;12.080;2023-08-06T04:24:08;14.80;99.90
39079;DHT22;24829;49.208;12.080;2023-08-06T04:26:33;14.80;99.90
39079;DHT22;24829;49.208;12.080;2023-08-06T04:28:59;14.80;99.90
39079;DHT22;24829;49.208;12.080;2023-08-06T04:31:24;14.80;99.90
39079;DHT22;24829;49.208;12.080;2023-08-06T04:33:50;14.80;99.90
39079;DHT22;24829;49.208;12.080;2023-08-06T04:36:15;14.80;99.90
39079;DHT22;24829;49.208;12.080;2023-08-06T04:38:41;14.80;99.90
39079;DHT22;24829;49.208;12.080;2023-08-06T04:41:10;14.80;99.90
39079;DHT22;24829;49.208;12.080;2023-08-06T04:43:36;14.80;99.90
39079;DHT22;24829;49.208;12.080;2023-08-06T04:46:02;14.80;99.90
39079;DHT22;24829;49.208;12.080;2023-08-06T04:48:27;14.80;99.90
39079;DHT22;24829;49.208;12.080;2023-08-06T04:50:53;14.80;99.90
39079;DHT22;24829;49.208;12.080;2023-08-06T04:53:19;14.80;99.90
39079;DHT22;24829;49.208;12.080;2023-08-06T04:55:45;14.80;99.90
39079;DHT22;24829;49.208;12.080;2023-08-06T04:58:13;14.80;99.90
39079;DHT22;24829;49.208;12.080;2023-08-06T05:00:39;14.80;99.90
39079;DHT22;24829;49.208;12.080;2023-08-06T05:03:05;14.80;99.90
39079;DHT22;24829;49.208;12.080;2023-08-06T05:05:31;14.80;99.90
39079;DHT22;24829;49.208;12.080;2023-08-06T05:07:57;14.80;99.90
39079;DHT22;24829;49.208;12.080;2023-08-06T05:10:25;14.90;99.90
39079;DHT22;24829;49.208;12.080;2023-08-06T05:12:51;14.90;99.90
39079;DHT22;24829;49.208;12.080;2023-08-06T05:15:17;14.90;99.90
39079;DHT22;24829;49.208;12.080;2023-08-06T05:17:43;15.10;99.90
39079;DHT22;24829;49.208;12.080;2023-08-06T05:20:09;15.20;99.90
39079;DHT22;24829;49.208;12.080;2023-08-06T05:22:35;15.20;99.90
39079;DHT22;24829;49.208;12.080;2023-08-06T05:25:00;15.30;99.90
39079;DHT22;24829;49.208;12.080;2023-08-06T05:27:26;15.40;99.90
39079;DHT22;24829;49.208;12.080;2023-08-06T05:29:55;15.30;99.90
39079;DHT22;24829;49.208;12.080;2023-08-06T05:32:21;15.40;99.90
39079;DHT22;24829;49.208;12.080;2023-08-06T05:34:47;15.40;99.90
39079;DHT22;24829;49.208;12.080;2023-08-06T05:37:13;15.40;99.90
39079;DHT22;24829;49.208;12.080;2023-08-06T05:39:38;15.50;99.90
39079;DHT22;24829;49.208;12.080;2023-08-06T05:42:04;15.40;99.90
39079;DHT22;24829;49.208;12.080;2023-08-06T05:44:30;15.40;99.90
39079;DHT22;24829;49.208;12.080;2023-08-06T05:46:55;15.50;99.90
39079;DHT22;24829;49.208;12.080;2023-08-06T05:49:21;15.50;99.90
39079;DHT22;24829;49.208;12.080;2023-08-06T05:51:46;15.50;99.90
39079;DHT22;24829;49.208;12.080;2023-08-06T05:54:12;15.50;99.90
39079;DHT22;24829;49.208;12.080;2023-08-06T05:56:37;15.50;99.90
39079;DHT22;24829;49.208;12.080;2023-08-06T05:59:03;15.50;99.90
39079;DHT22;24829;49.208;12.080;2023-08-06T06:01:28;15.40;99.90
39079;DHT22;24829;49.208;12.080;2023-08-06T06:03:54;15.50;99.90
39079;DHT22;24829;49.208;12.080;2023-08-06T06:06:19;15.50;99.90
39079;DHT22;24829;49.208;12.080;2023-08-06T06:08:45;15.50;99.90
39079;DHT22;24829;49.208;12.080;2023-08-06T06:11:11;15.50;99.90
39079;DHT22;24829;49.208;12.080;2023-08-06T06:13:36;15.60;99.90
39079;DHT22;24829;49.208;12.080;2023-08-06T06:16:02;15.60;99.90
39079;DHT22;24829;49.208;12.080;2023-08-06T06:18:27;15.70;99.90
39079;DHT22;24829;49.208;12.080;2023-08-06T06:20:53;15.70;99.90
39079;DHT22;24829;49.208;12.080;2023-08-06T06:23:19;15.70;99.90
39079;DHT22;24829;49.208;12.080;2023-08-06T06:25:48;15.70;99.90
39079;DHT22;24829;49.208;12.080;2023-08-06T06:28:14;15.80;99.90
39079;DHT22;24829;49.208;12.080;2023-08-06T06:30:41;15.80;99.90
39079;DHT22;24829;49.208;12.080;2023-08-06T06:33:07;15.80;99.90
39079;DHT22;24829;49.208;12.080;2023-08-06T06:35:34;15.80;99.90
39079;DHT22;24829;49.208;12.080;2023-08-06T06:37:59;15.90;99.90
39079;DHT22;24829;49.208;12.080;2023-08-06T06:40:25;16.10;99.90
39079;DHT22;24829;49.208;12.080;2023-08-06T06:42:51;16.20;99.90
39079;DHT22;24829;49.208;12.080;2023-08-06T06:45:16;16.20;99.90
39079;DHT22;24829;49.208;12.080;2023-08-06T06:47:42;16.30;99.90
39079;DHT22;24829;49.208;12.080;2023-08-06T06:50:08;16.40;99.90
39079;DHT22;24829;49.208;12.080;2023-08-06T06:52:34;16.50;99.90
39079;DHT22;24829;49.208;12.080;2023-08-06T06:54:59;16.90;99.90
39079;DHT22;24829;49.208;12.080;2023-08-06T06:57:25;17.40;99.90
39079;DHT22;24829;49.208;12.080;2023-08-06T06:59:50;17.90;99.90
39079;DHT22;24829;49.208;12.080;2023-08-06T07:02:16;18.30;99.90
39079;DHT22;24829;49.208;12.080;2023-08-06T07:04:41;18.80;99.90
39079;DHT22;24829;49.208;12.080;2023-08-06T07:07:07;19.10;99.90
39079;DHT22;24829;49.208;12.080;2023-08-06T07:09:32;19.40;99.90
39079;DHT22;24829;49.208;12.080;2023-08-06T07:11:58;19.70;99.90
39079;DHT22;24829;49.208;12.080;2023-08-06T07:14:25;20.10;99.90
39079;DHT22;24829;49.208;12.080;2023-08-06T07:16:51;20.40;99.90
39079;DHT22;24829;49.208;12.080;2023-08-06T07:19:17;20.50;99.90
39079;DHT22;24829;49.208;12.080;2023-08-06T07:21:42;20.50;99.90
39079;DHT22;24829;49.208;12.080;2023-08-06T07:24:08;20.50;99.90
39079;DHT22;24829;49.208;12.080;2023-08-06T07:26:33;20.50;99.90
39079;DHT22;24829;49.208;12.080;2023-08-06T07:28:59;20.60;99.90
39079;DHT22;24829;49.208;12.080;2023-08-06T07:31:25;20.80;99.90
39079;DHT22;24829;49.208;12.080;2023-08-06T07:33:51;20.60;99.90
39079;DHT22;24829;49.208;12.080;2023-08-06T07:36:16;20.30;99.90
39079;DHT22;24829;49.208;12.080;2023-08-06T07:38:42;20.00;99.90
39079;DHT22;24829;49.208;12.080;2023-08-06T07:41:08;19.70;99.90
39079;DHT22;24829;49.208;12.080;2023-08-06T07:43:34;19.40;99.90
39079;DHT22;24829;49.208;12.080;2023-08-06T07:46:01;19.20;99.90
39079;DHT22;24829;49.208;12.080;2023-08-06T07:48:27;19.00;99.90
39079;DHT22;24829;49.208;12.080;2023-08-06T07:50:53;18.90;99.90
39079;DHT22;24829;49.208;12.080;2023-08-06T07:53:23;19.00;99.90
39079;DHT22;24829;49.208;12.080;2023-08-06T07:55:50;19.00;99.90
39079;DHT22;24829;49.208;12.080;2023-08-06T07:58:16;19.20;99.90
39079;DHT22;24829;49.208;12.080;2023-08-06T08:00:42;19.20;99.90
39079;DHT22;24829;49.208;12.080;2023-08-06T08:03:11;19.20;99.90
39079;DHT22;24829;49.208;12.080;2023-08-06T08:05:37;19.20;99.90
39079;DHT22;24829;49.208;12.080;2023-08-06T08:08:03;19.00;99.90
39079;DHT22;24829;49.208;12.080;2023-08-06T08:10:28;19.00;99.90
39079;DHT22;24829;49.208;12.080;2023-08-06T08:12:54;18.90;99.90
39079;DHT22;24829;49.208;12.080;2023-08-06T08:15:20;18.80;99.90
39079;DHT22;24829;49.208;12.080;2023-08-06T08:17:45;18.70;99.90
39079;DHT22;24829;49.208;12.080;2023-08-06T08:20:13;18.50;99.90
39079;DHT22;24829;49.208;12.080;2023-08-06T08:22:39;18.40;99.90
39079;DHT22;24829;49.208;12.080;2023-08-06T08:25:04;18.40;99.90
39079;DHT22;24829;49.208;12.080;2023-08-06T08:27:30;18.40;99.90
39079;DHT22;24829;49.208;12.080;2023-08-06T08:29:56;18.30;99.90
39079;DHT22;24829;49.208;12.080;2023-08-06T08:32:21;18.30;99.90
39079;DHT22;24829;49.208;12.080;2023-08-06T08:34:47;18.30;99.90
39079;DHT22;24829;49.208;12.080;2023-08-06T08:37:13;18.40;99.90
39079;DHT22;24829;49.208;12.080;2023-08-06T08:39:39;18.30;99.90
39079;DHT22;24829;49.208;12.080;2023-08-06T08:42:06;18.40;99.90
39079;DHT22;24829;49.208;12.080;2023-08-06T08:44:32;18.50;99.90
39079;DHT22;24829;49.208;12.080;2023-08-06T08:46:59;18.60;99.90
39079;DHT22;24829;49.208;12.080;2023-08-06T08:49:26;18.80;99.90
39079;DHT22;24829;49.208;12.080;2023-08-06T08:51:53;19.10;99.90
39079;DHT22;24829;49.208;12.080;2023-08-06T08:54:22;19.40;99.90
39079;DHT22;24829;49.208;12.080;2023-08-06T08:56:48;19.50;99.90
39079;DHT22;24829;49.208;12.080;2023-08-06T08:59:14;19.50;99.90
39079;DHT22;24829;49.208;12.080;2023-08-06T09:01:40;19.50;99.90
39079;DHT22;24829;49.208;12.080;2023-08-06T09:04:08;19.50;99.90
39079;DHT22;24829;49.208;12.080;2023-08-06T09:06:37;19.40;99.90
39079;DHT22;24829;49.208;12.080;2023-08-06T09:09:17;19.50;99.90
39079;DHT22;24829;49.208;12.080;2023-08-06T09:11:46;19.90;99.90
39079;DHT22;24829;49.208;12.080;2023-08-06T09:14:14;20.30;99.90
39079;DHT22;24829;49.208;12.080;2023-08-06T09:16:40;20.50;99.90
39079;DHT22;24829;49.208;12.080;2023-08-06T09:19:12;20.50;99.90
39079;DHT22;24829;49.208;12.080;2023-08-06T09:21:41;20.20;99.90
39079;DHT22;24829;49.208;12.080;2023-08-06T09:24:11;20.10;99.90
39079;DHT22;24829;49.208;12.080;2023-08-06T09:26:41;19.80;99.90
39079;DHT22;24829;49.208;12.080;2023-08-06T09:29:08;19.50;99.90
39079;DHT22;24829;49.208;12.080;2023-08-06T09:31:54;19.30;99.90
39079;DHT22;24829;49.208;12.080;2023-08-06T09:34:21;19.10;99.90
39079;DHT22;24829;49.208;12.080;2023-08-06T09:36:53;19.00;99.90
39079;DHT22;24829;49.208;12.080;2023-08-06T09:39:29;19.10;99.90
39079;DHT22;24829;49.208;12.080;2023-08-06T09:41:56;19.30;99.90
39079;DHT22;24829;49.208;12.080;2023-08-06T09:44:24;19.30;99.90
39079;DHT22;24829;49.208;12.080;2023-08-06T09:46:58;19.10;99.90
39079;DHT22;24829;49.208;12.080;2023-08-06T09:49:28;18.50;99.90
39079;DHT22;24829;49.208;12.080;2023-08-06T09:51:54;18.10;99.90
39079;DHT22;24829;49.208;12.080;2023-08-06T09:54:25;17.70;99.90
39079;DHT22;24829;49.208;12.080;2023-08-06T09:56:54;17.50;99.90
39079;DHT22;24829;49.208;12.080;2023-08-06T09:59:20;17.40;99.90
39079;DHT22;24829;49.208;12.080;2023-08-06T10:01:46;17.30;99.90
39079;DHT22;24829;49.208;12.080;2023-08-06T10:04:14;17.40;99.90
39079;DHT22;24829;49.208;12.080;2023-08-06T10:06:42;17.50;99.90
39079;DHT22;24829;49.208;12.080;2023-08-06T10:09:08;17.60;99.90
39079;DHT22;24829;49.208;12.080;2023-08-06T10:11:36;17.70;99.90
39079;DHT22;24829;49.208;12.080;2023-08-06T10:14:13;17.90;99.90
39079;DHT22;24829;49.208;12.080;2023-08-06T10:16:41;18.00;99.90
39079;DHT22;24829;49.208;12.080;2023-08-06T10:19:09;18.20;99.90
39079;DHT22;24829;49.208;12.080;2023-08-06T10:21:35;18.30;99.90
39079;DHT22;24829;49.208;12.080;2023-08-06T10:24:01;18.40;99.90
39079;DHT22;24829;49.208;12.080;2023-08-06T10:26:29;18.50;99.90
39079;DHT22;24829;49.208;12.080;2023-08-06T10:28:55;18.50;99.90
39079;DHT22;24829;49.208;12.080;2023-08-06T10:31:54;18.50;99.90
39079;DHT22;24829;49.208;12.080;2023-08-06T10:34:21;18.50;99.90
39079;DHT22;24829;49.208;12.080;2023-08-06T10:36:47;18.40;99.90
39079;DHT22;24829;49.208;12.080;2023-08-06T10:39:15;18.30;99.90
39079;DHT22;24829;49.208;12.080;2023-08-06T10:41:42;18.20;99.90
39079;DHT22;24829;49.208;12.080;2023-08-06T10:44:09;18.20;99.90
39079;DHT22;24829;49.208;12.080;2023-08-06T10:46:36;18.00;99.90
39079;DHT22;24829;49.208;12.080;2023-08-06T10:49:03;17.80;99.90
39079;DHT22;24829;49.208;12.080;2023-08-06T10:51:29;17.70;99.90
39079;DHT22;24829;49.208;12.080;2023-08-06T10:53:55;17.80;99.90
39079;DHT22;24829;49.208;12.080;2023-08-06T10:56:22;17.80;99.90
39079;DHT22;24829;49.208;12.080;2023-08-06T10:58:49;17.60;99.90
39079;DHT22;24829;49.208;12.080;2023-08-06T11:01:16;17.40;99.90
39079;DHT22;24829;49.208;12.080;2023-08-06T11:03:43;17.30;99.90
39079;DHT22;24829;49.208;12.080;2023-08-06T11:06:22;17.30;99.90
39079;DHT22;24829;49.208;12.080;2023-08-06T11:08:50;17.30;99.90
39079;DHT22;24829;49.208;12.080;2023-08-06T11:11:17;17.40;99.90
39079;DHT22;24829;49.208;12.080;2023-08-06T11:13:45;17.40;99.90
39079;DHT22;24829;49.208;12.080;2023-08-06T11:16:15;17.50;99.90
39079;DHT22;24829;49.208;12.080;2023-08-06T11:18:42;17.70;99.90
39079;DHT22;24829;49.208;12.080;2023-08-06T11:21:08;17.80;99.90
39079;DHT22;24829;49.208;12.080;2023-08-06T11:23:34;18.00;99.90
39079;DHT22;24829;49.208;12.080;2023-08-06T11:26:01;18.10;99.90
39079;DHT22;24829;49.208;12.080;2023-08-06T11:28:26;18.30;99.90
39079;DHT22;24829;49.208;12.080;2023-08-06T11:30:53;18.40;99.90
39079;DHT22;24829;49.208;12.080;2023-08-06T11:33:24;18.50;99.90
39079;DHT22;24829;49.208;12.080;2023-08-06T11:35:55;18.70;99.90
39079;DHT22;24829;49.208;12.080;2023-08-06T11:38:21;18.70;99.90
39079;DHT22;24829;49.208;12.080;2023-08-06T11:40:50;18.80;99.90
39079;DHT22;24829;49.208;12.080;2023-08-06T11:43:18;18.90;99.90
39079;DHT22;24829;49.208;12.080;2023-08-06T11:45:44;19.00;99.90
39079;DHT22;24829;49.208;12.080;2023-08-06T11:48:09;19.00;99.90
39079;DHT22;24829;49.208;12.080;2023-08-06T11:50:38;19.20;99.90
39079;DHT22;24829;49.208;12.080;2023-08-06T11:53:04;19.30;99.90
39079;DHT22;24829;49.208;12.080;2023-08-06T11:55:30;19.40;99.90
39079;DHT22;24829;49.208;12.080;2023-08-06T11:57:56;19.50;99.90
39079;DHT22;24829;49.208;12.080;2023-08-06T12:00:25;19.60;99.90
39079;DHT22;24829;49.208;12.080;2023-08-06T12:02:52;19.60;99.90
39079;DHT22;24829;49.208;12.080;2023-08-06T12:05:23;19.60;99.90
39079;DHT22;24829;49.208;12.080;2023-08-06T12:07:55;19.50;99.90
39079;DHT22;24829;49.208;12.080;2023-08-06T12:10:22;19.50;99.90
39079;DHT22;24829;49.208;12.080;2023-08-06T12:12:48;19.60;99.90
39079;DHT22;24829;49.208;12.080;2023-08-06T12:15:14;19.80;99.90
39079;DHT22;24829;49.208;12.080;2023-08-06T12:17:40;19.90;99.90
39079;DHT22;24829;49.208;12.080;2023-08-06T12:20:06;19.90;99.90
39079;DHT22;24829;49.208;12.080;2023-08-06T12:22:33;20.00;99.90
39079;DHT22;24829;49.208;12.080;2023-08-06T12:25:05;20.20;99.90
39079;DHT22;24829;49.208;12.080;2023-08-06T12:27:44;20.30;99.90
39079;DHT22;24829;49.208;12.080;2023-08-06T12:30:10;20.50;99.90
39079;DHT22;24829;49.208;12.080;2023-08-06T12:32:37;20.70;99.90
39079;DHT22;24829;49.208;12.080;2023-08-06T12:35:03;20.90;99.90
39079;DHT22;24829;49.208;12.080;2023-08-06T12:37:29;20.90;99.90
39079;DHT22;24829;49.208;12.080;2023-08-06T12:39:54;20.80;99.90
39079;DHT22;24829;49.208;12.080;2023-08-06T12:42:20;20.70;99.90
39079;DHT22;24829;49.208;12.080;2023-08-06T12:44:45;20.70;99.90
39079;DHT22;24829;49.208;12.080;2023-08-06T12:47:11;20.80;99.90
39079;DHT22;24829;49.208;12.080;2023-08-06T12:49:36;20.60;99.90
39079;DHT22;24829;49.208;12.080;2023-08-06T12:52:02;20.40;99.90
39079;DHT22;24829;49.208;12.080;2023-08-06T12:54:31;20.10;99.90
39079;DHT22;24829;49.208;12.080;2023-08-06T12:57:01;19.90;99.90
39079;DHT22;24829;49.208;12.080;2023-08-06T12:59:27;19.80;99.90
39079;DHT22;24829;49.208;12.080;2023-08-06T13:01:52;20.00;99.90
39079;DHT22;24829;49.208;12.080;2023-08-06T13:04:18;20.10;99.90
39079;DHT22;24829;49.208;12.080;2023-08-06T13:06:44;20.20;99.90
39079;DHT22;24829;49.208;12.080;2023-08-06T13:09:09;20.20;99.90
39079;DHT22;24829;49.208;12.080;2023-08-06T13:11:36;20.20;99.90
39079;DHT22;24829;49.208;12.080;2023-08-06T13:14:07;20.20;99.90
39079;DHT22;24829;49.208;12.080;2023-08-06T13:16:33;20.20;99.90
39079;DHT22;24829;49.208;12.080;2023-08-06T13:18:59;20.10;99.90
39079;DHT22;24829;49.208;12.080;2023-08-06T13:21:31;20.00;99.90
39079;DHT22;24829;49.208;12.080;2023-08-06T13:23:57;19.90;99.90
39079;DHT22;24829;49.208;12.080;2023-08-06T13:26:22;20.00;99.90
39079;DHT22;24829;49.208;12.080;2023-08-06T13:28:48;19.90;99.90
39079;DHT22;24829;49.208;12.080;2023-08-06T13:31:14;19.80;99.90
39079;DHT22;24829;49.208;12.080;2023-08-06T13:33:40;19.80;99.90
39079;DHT22;24829;49.208;12.080;2023-08-06T13:36:05;20.00;99.90
39079;DHT22;24829;49.208;12.080;2023-08-06T13:38:31;20.10;99.90
39079;DHT22;24829;49.208;12.080;2023-08-06T13:40:56;20.20;99.90
39079;DHT22;24829;49.208;12.080;2023-08-06T13:43:23;20.20;99.90
39079;DHT22;24829;49.208;12.080;2023-08-06T13:45:49;20.10;99.90
39079;DHT22;24829;49.208;12.080;2023-08-06T13:48:15;19.80;99.90
39079;DHT22;24829;49.208;12.080;2023-08-06T13:50:40;19.50;99.90
39079;DHT22;24829;49.208;12.080;2023-08-06T13:53:06;19.20;99.90
39079;DHT22;24829;49.208;12.080;2023-08-06T13:55:31;19.00;99.90
39079;DHT22;24829;49.208;12.080;2023-08-06T13:57:57;19.00;99.90
39079;DHT22;24829;49.208;12.080;2023-08-06T14:00:22;18.80;99.90
39079;DHT22;24829;49.208;12.080;2023-08-06T14:02:48;18.90;99.90
39079;DHT22;24829;49.208;12.080;2023-08-06T14:05:14;18.80;99.90
39079;DHT22;24829;49.208;12.080;2023-08-06T14:07:39;19.00;99.90
39079;DHT22;24829;49.208;12.080;2023-08-06T14:10:05;19.00;99.90
39079;DHT22;24829;49.208;12.080;2023-08-06T14:12:31;19.00;99.90
39079;DHT22;24829;49.208;12.080;2023-08-06T14:14:57;19.00;99.90
39079;DHT22;24829;49.208;12.080;2023-08-06T14:17:22;19.20;99.90
39079;DHT22;24829;49.208;12.080;2023-08-06T14:19:48;19.40;99.90
39079;DHT22;24829;49.208;12.080;2023-08-06T14:22:13;19.50;99.90
39079;DHT22;24829;49.208;12.080;2023-08-06T14:24:39;19.70;99.90
39079;DHT22;24829;49.208;12.080;2023-08-06T14:27:05;19.70;99.90
39079;DHT22;24829;49.208;12.080;2023-08-06T14:29:31;19.50;99.90
39079;DHT22;24829;49.208;12.080;2023-08-06T14:31:57;19.30;99.90
39079;DHT22;24829;49.208;12.080;2023-08-06T14:34:22;19.00;99.90
39079;DHT22;24829;49.208;12.080;2023-08-06T14:36:48;18.50;99.90
39079;DHT22;24829;49.208;12.080;2023-08-06T14:39:14;18.10;99.90
39079;DHT22;24829;49.208;12.080;2023-08-06T14:41:39;17.90;99.90
39079;DHT22;24829;49.208;12.080;2023-08-06T14:44:05;17.80;99.90
39079;DHT22;24829;49.208;12.080;2023-08-06T14:46:32;17.90;99.90
39079;DHT22;24829;49.208;12.080;2023-08-06T14:48:58;17.90;99.90
39079;DHT22;24829;49.208;12.080;2023-08-06T14:51:23;18.00;99.90
39079;DHT22;24829;49.208;12.080;2023-08-06T14:53:49;18.10;99.90
39079;DHT22;24829;49.208;12.080;2023-08-06T14:56:15;18.10;99.90
39079;DHT22;24829;49.208;12.080;2023-08-06T14:58:41;18.10;99.90
39079;DHT22;24829;49.208;12.080;2023-08-06T15:01:07;18.20;99.90
39079;DHT22;24829;49.208;12.080;2023-08-06T15:03:32;18.20;99.90
39079;DHT22;24829;49.208;12.080;2023-08-06T15:05:59;18.10;99.90
39079;DHT22;24829;49.208;12.080;2023-08-06T15:08:24;18.00;99.90
39079;DHT22;24829;49.208;12.080;2023-08-06T15:10:51;17.80;99.90
39079;DHT22;24829;49.208;12.080;2023-08-06T15:13:18;17.60;99.90
39079;DHT22;24829;49.208;12.080;2023-08-06T15:15:43;17.40;99.90
39079;DHT22;24829;49.208;12.080;2023-08-06T15:18:10;17.30;99.90
39079;DHT22;24829;49.208;12.080;2023-08-06T15:20:36;17.20;99.90
39079;DHT22;24829;49.208;12.080;2023-08-06T15:23:02;17.10;99.90